createdAt,value
2022-08-05T00:00:46.393Z,27.60
2022-08-05T00:03:15.848Z,27.60
2022-08-05T00:06:06.486Z,27.50
2022-08-05T00:08:36.186Z,27.60
2022-08-05T00:11:23.751Z,27.50
2022-08-05T00:13:56.076Z,27.50
2022-08-05T00:16:35.652Z,27.50
2022-08-05T00:19:05.860Z,27.50
2022-08-05T00:21:35.881Z,27.40
2022-08-05T00:24:10.677Z,27.40
2022-08-05T00:26:43.431Z,27.40
2022-08-05T00:29:22.527Z,27.40
2022-08-05T00:31:53.572Z,27.40
2022-08-05T00:34:53.754Z,27.40
2022-08-05T00:37:27.732Z,27.40
2022-08-05T00:40:17.976Z,27.30
2022-08-05T00:42:56.485Z,27.40
2022-08-05T00:45:37.899Z,27.40
2022-08-05T00:48:09.270Z,27.40
2022-08-05T00:50:38.051Z,27.30
2022-08-05T00:53:09.855Z,27.30
2022-08-05T00:55:56.299Z,27.30
2022-08-05T00:58:27.168Z,27.30
2022-08-05T01:00:56.244Z,27.30
2022-08-05T01:03:33.342Z,27.20
2022-08-05T01:06:03.969Z,27.30
2022-08-05T01:08:43.026Z,27.20
2022-08-05T01:11:22.464Z,27.20
2022-08-05T01:14:08.918Z,27.20
2022-08-05T01:16:49.607Z,27.20
2022-08-05T01:19:56.288Z,27.20
2022-08-05T01:22:34.107Z,27.20
2022-08-05T01:25:24.049Z,27.20
2022-08-05T01:28:17.744Z,27.20
2022-08-05T01:30:55.073Z,27.20
2022-08-05T01:33:29.521Z,27.10
2022-08-05T01:36:12.937Z,27.20
2022-08-05T01:38:48.505Z,27.10
2022-08-05T01:41:21.770Z,27.10
2022-08-05T01:43:53.575Z,27.10
2022-08-05T01:46:42.578Z,27.10
2022-08-05T01:49:23.828Z,27.00
2022-08-05T01:51:58.344Z,27.00
2022-08-05T01:54:31.546Z,27.00
2022-08-05T01:58:11.070Z,27.00
2022-08-05T01:59:53.653Z,26.90
2022-08-05T02:02:28.480Z,26.90
2022-08-05T02:05:01.730Z,26.80
2022-08-05T02:07:32.287Z,26.80
2022-08-05T02:10:03.409Z,26.80
2022-08-05T02:12:36.655Z,26.70
2022-08-05T02:15:12.410Z,26.70
2022-08-05T02:18:31.138Z,26.70
2022-08-05T02:20:47.165Z,26.70
2022-08-05T02:23:17.648Z,26.70
2022-08-05T02:25:49.818Z,26.60
2022-08-05T02:28:29.017Z,26.60
2022-08-05T02:31:07.626Z,26.60
2022-08-05T02:33:57.404Z,26.50
2022-08-05T02:36:31.541Z,26.50
2022-08-05T02:39:03.206Z,26.40
2022-08-05T02:41:43.275Z,26.40
2022-08-05T02:44:24.722Z,26.40
2022-08-05T02:47:00.962Z,26.30
2022-08-05T02:49:36.740Z,26.30
2022-08-05T05:35:45.838Z,26.20
2022-08-05T05:38:26.954Z,25.30
2022-08-05T05:40:57.192Z,25.40
2022-08-05T05:43:54.314Z,25.40
2022-08-05T05:46:15.681Z,25.50
2022-08-05T05:48:45.850Z,25.60
2022-08-05T05:51:20.511Z,25.70
2022-08-05T05:53:57.600Z,25.70
2022-08-05T05:56:32.750Z,25.80
2022-08-05T05:59:03.226Z,25.90
2022-08-05T06:01:37.519Z,26.00
2022-08-05T06:04:11.378Z,26.10
2022-08-05T06:06:41.583Z,26.10
2022-08-05T06:09:17.540Z,26.20
2022-08-05T06:12:01.899Z,26.30
2022-08-05T06:14:31.107Z,26.40
2022-08-05T06:17:02.235Z,26.40
2022-08-05T06:24:58.935Z,26.50
2022-08-05T06:28:09.226Z,26.70
2022-08-05T06:30:19.835Z,26.80
2022-08-05T06:32:50.571Z,26.90
2022-08-05T06:36:03.081Z,26.90
2022-08-05T06:38:11.270Z,27.00
2022-08-05T06:40:44.471Z,27.10
2022-08-05T06:43:57.999Z,27.20
2022-08-05T06:46:07.012Z,27.20
2022-08-05T06:48:53.831Z,27.30
2022-08-05T06:51:29.998Z,27.30
2022-08-05T06:54:01.849Z,27.40
2022-08-05T06:56:34.437Z,27.50
2022-08-05T06:59:03.413Z,27.60
2022-08-05T07:01:36.981Z,27.70
2022-08-05T07:04:05.498Z,27.80
2022-08-05T07:06:33.757Z,27.90
2022-08-05T07:09:03.795Z,28.00
2022-08-05T07:11:36.870Z,28.10
2022-08-05T07:14:30.099Z,28.20
2022-08-05T07:17:59.115Z,28.30
2022-08-05T07:22:42.432Z,28.40
2022-08-05T07:25:54.219Z,28.50
2022-08-05T07:28:11.522Z,28.50
2022-08-05T07:30:40.515Z,28.50
2022-08-05T07:33:15.945Z,28.60
2022-08-05T07:36:05.229Z,28.50
2022-08-05T07:38:43.103Z,28.50
2022-08-05T07:42:07.743Z,28.50
2022-08-05T07:44:18.499Z,28.50
2022-08-05T07:46:49.798Z,28.50
2022-08-05T07:49:18.926Z,28.60
2022-08-05T07:51:54.017Z,28.60
2022-08-05T07:54:31.329Z,28.70
2022-08-05T07:57:13.993Z,28.80
2022-08-05T07:59:53.469Z,28.80
2022-08-05T08:02:31.219Z,28.90
2022-08-05T08:05:14.966Z,28.90
2022-08-05T08:07:59.994Z,29.10
2022-08-05T08:10:30.306Z,29.10
2022-08-05T08:12:58.959Z,29.20
2022-08-05T08:16:33.218Z,29.20
2022-08-05T08:18:20.836Z,29.30
2022-08-05T08:21:02.390Z,29.40
2022-08-05T08:24:01.767Z,29.40
2022-08-05T08:26:26.775Z,29.50
2022-08-05T08:29:02.353Z,29.60
2022-08-05T08:31:52.222Z,29.60
2022-08-05T08:34:30.719Z,29.70
2022-08-05T08:37:05.267Z,29.70
2022-08-05T08:39:37.579Z,29.80
2022-08-05T08:42:10.814Z,29.90
2022-08-05T08:45:20.552Z,30.00
2022-08-05T08:48:07.396Z,30.00
2022-08-05T08:51:03.389Z,30.10
2022-08-05T08:53:37.562Z,30.20
2022-08-05T08:56:08.909Z,30.30
2022-08-05T08:58:44.397Z,30.40
2022-08-05T09:01:18.016Z,30.40
2022-08-05T09:03:55.280Z,30.50
2022-08-05T09:06:28.121Z,30.50
2022-08-05T09:09:00.312Z,30.60
2022-08-05T09:11:53.179Z,30.70
2022-08-05T09:14:56.938Z,30.70
2022-08-05T09:17:08.213Z,30.70
2022-08-05T09:20:01.672Z,30.80
2022-08-05T09:22:31.068Z,30.80
2022-08-05T09:25:01.213Z,30.80
2022-08-05T09:28:04.564Z,30.90
2022-08-05T09:30:25.476Z,30.90
2022-08-05T09:32:54.393Z,30.90
2022-08-05T09:35:27.610Z,31.00
2022-08-05T09:38:18.485Z,31.00
2022-08-05T09:40:53.624Z,31.00
2022-08-05T09:43:41.366Z,31.00
2022-08-05T09:46:27.449Z,31.00
2022-08-05T09:49:08.226Z,31.10
2022-08-05T09:51:49.687Z,31.10
2022-08-05T09:54:21.404Z,31.10
2022-08-05T09:57:01.541Z,31.20
2022-08-05T09:59:34.827Z,31.20
2022-08-05T10:02:05.861Z,31.30
2022-08-05T10:04:43.313Z,31.30
2022-08-05T10:07:20.423Z,31.40
2022-08-05T10:10:13.744Z,31.40
2022-08-05T10:12:49.998Z,31.40
2022-08-05T10:15:25.702Z,31.40
2022-08-05T10:18:14.127Z,31.40
2022-08-05T10:20:48.834Z,31.40
2022-08-05T10:23:34.658Z,31.40
2022-08-05T10:26:14.540Z,31.40
2022-08-05T10:28:46.594Z,31.40
2022-08-05T10:32:50.751Z,31.40
2022-08-05T10:34:10.004Z,31.40
2022-08-05T10:36:40.783Z,31.40
2022-08-05T10:39:24.139Z,31.40
2022-08-05T10:42:01.222Z,31.40
2022-08-05T10:44:32.722Z,31.40
2022-08-05T10:47:26.897Z,31.40
2022-08-05T10:50:31.776Z,31.40
2022-08-05T10:52:58.558Z,31.40
2022-08-05T10:55:32.901Z,31.40
2022-08-05T10:58:11.649Z,31.40
2022-08-05T11:00:54.900Z,31.40
2022-08-05T11:03:26.933Z,31.40
2022-08-05T11:06:14.625Z,31.50
2022-08-05T11:09:18.601Z,31.50
2022-08-05T11:11:56.382Z,31.50
2022-08-05T11:14:49.369Z,31.50
2022-08-05T11:17:57.744Z,31.50
2022-08-05T11:20:41.822Z,31.40
2022-08-05T11:24:05.225Z,31.40
2022-08-05T11:26:43.411Z,31.40
2022-08-05T11:29:40.327Z,31.30
2022-08-05T11:32:27.449Z,31.30
2022-08-05T11:34:57.415Z,31.30
2022-08-05T11:38:29.693Z,31.30
2022-08-05T11:41:35.104Z,31.30
2022-08-05T11:44:05.805Z,31.30
2022-08-05T11:46:58.287Z,31.30
2022-08-05T11:49:27.245Z,31.40
2022-08-05T11:51:57.366Z,31.40
2022-08-05T11:54:33.753Z,31.50
2022-08-05T11:57:08.353Z,31.40
2022-08-05T11:59:53.263Z,31.50
2022-08-05T12:02:33.088Z,31.50
2022-08-05T12:05:07.027Z,31.60
2022-08-05T12:08:08.457Z,31.50
2022-08-05T12:10:43.690Z,31.60
2022-08-05T12:13:16.478Z,31.60
2022-08-05T12:15:49.929Z,31.50
2022-08-05T12:18:33.084Z,31.50
2022-08-05T12:21:15.823Z,31.60
2022-08-05T12:23:54.423Z,31.50
2022-08-05T12:26:23.164Z,31.60
2022-08-05T12:28:52.270Z,31.60
2022-08-05T12:31:33.684Z,31.60
2022-08-05T12:34:20.293Z,31.60
2022-08-05T12:36:51.007Z,31.60
2022-08-05T12:39:20.289Z,31.60
2022-08-05T12:41:48.861Z,31.70
2022-08-05T12:44:33.090Z,31.70
2022-08-05T12:47:05.711Z,31.70
2022-08-05T12:50:04.853Z,31.70
2022-08-05T12:52:41.661Z,31.70
2022-08-05T12:55:23.761Z,31.70
2022-08-05T12:58:38.959Z,31.80
2022-08-05T13:02:00.554Z,31.80
2022-08-05T13:03:41.713Z,31.90
2022-08-05T13:06:17.363Z,31.70
2022-08-05T13:08:51.597Z,31.80
2022-08-05T13:12:01.232Z,31.90
2022-08-05T13:14:24.625Z,31.90
2022-08-05T13:17:04.263Z,31.80
2022-08-05T13:19:51.642Z,31.80
2022-08-05T13:22:27.794Z,31.90
2022-08-05T13:25:00.602Z,31.80
2022-08-05T13:27:36.300Z,31.80
2022-08-05T13:30:34.570Z,31.90
2022-08-05T13:32:57.543Z,31.90
2022-08-05T13:35:43.204Z,31.80
2022-08-05T13:38:30.459Z,31.90
2022-08-05T13:41:00.099Z,31.90
2022-08-05T13:43:44.852Z,31.90
2022-08-05T13:46:18.525Z,31.80
2022-08-05T13:49:04.456Z,31.90
2022-08-05T13:51:40.253Z,31.90
2022-08-05T13:54:11.670Z,31.90
2022-08-05T13:56:44.982Z,31.90
2022-08-05T13:59:21.076Z,31.90
2022-08-05T14:01:58.337Z,32.00
2022-08-05T14:04:49.996Z,31.90
2022-08-05T14:07:25.743Z,32.00
2022-08-05T14:10:13.064Z,32.00
2022-08-05T14:12:42.942Z,32.00
2022-08-05T14:16:05.682Z,32.00
2022-08-05T14:18:15.063Z,31.90
2022-08-05T14:20:48.510Z,31.90
2022-08-05T14:23:23.940Z,32.00
2022-08-05T14:25:58.719Z,32.00
2022-08-05T14:28:28.543Z,32.00
2022-08-05T14:30:57.061Z,32.00
2022-08-05T14:33:25.275Z,32.10
2022-08-05T14:35:54.510Z,32.10
2022-08-05T14:38:32.341Z,32.10
2022-08-05T14:41:07.711Z,32.10
2022-08-05T14:43:59.434Z,32.20
2022-08-05T14:46:29.822Z,32.20
2022-08-05T14:49:06.315Z,32.20
2022-08-05T14:51:35.429Z,32.20
2022-08-05T14:54:26.028Z,32.20
2022-08-05T14:56:53.747Z,32.20
2022-08-05T14:59:23.818Z,32.20
2022-08-05T15:01:53.728Z,32.20
2022-08-05T15:04:22.775Z,32.20
2022-08-05T15:06:51.584Z,32.20
2022-08-05T15:09:51.742Z,32.20
2022-08-05T15:12:11.640Z,32.20
2022-08-05T15:14:50.523Z,32.10
2022-08-05T15:17:46.550Z,32.10
2022-08-05T15:20:18.518Z,32.00
2022-08-05T15:22:54.122Z,31.90
2022-08-05T15:25:40.969Z,31.90
2022-08-05T15:28:15.653Z,31.90
2022-08-05T15:30:45.534Z,32.00
2022-08-05T15:34:04.376Z,31.90
2022-08-05T15:36:04.710Z,32.00
2022-08-05T15:38:40.811Z,31.90
2022-08-05T15:41:22.759Z,31.90
2022-08-05T15:43:55.024Z,31.90
2022-08-05T15:46:24.984Z,31.90
2022-08-05T15:49:01.226Z,31.90
2022-08-05T15:52:09.822Z,31.90
2022-08-05T15:54:34.965Z,31.90
2022-08-05T15:57:07.593Z,31.90
2022-08-05T15:59:38.194Z,31.90
2022-08-05T16:02:09.870Z,31.90
2022-08-05T16:04:44.061Z,31.90
2022-08-05T16:07:13.394Z,31.90
2022-08-05T16:09:42.116Z,31.90
2022-08-05T16:12:12.301Z,31.90
2022-08-05T16:14:41.948Z,31.90
2022-08-05T16:17:12.958Z,31.80
2022-08-05T16:20:04.800Z,31.80
2022-08-05T16:22:34.315Z,31.70
2022-08-05T16:25:09.359Z,31.70
2022-08-05T16:28:00.641Z,31.70
2022-08-05T16:30:29.415Z,31.70
2022-08-05T16:32:58.851Z,31.70
2022-08-05T16:35:32.459Z,31.60
2022-08-05T16:38:23.970Z,31.60
2022-08-05T16:40:55.760Z,31.60
2022-08-05T16:43:31.333Z,31.50
2022-08-05T16:46:09.145Z,31.50
2022-08-05T16:48:51.239Z,31.40
2022-08-05T16:51:19.509Z,31.40
2022-08-05T16:54:05.212Z,31.40
2022-08-05T16:56:40.433Z,31.30
2022-08-05T16:59:10.293Z,31.30
2022-08-05T17:01:53.909Z,31.20
2022-08-05T17:04:26.446Z,31.20
2022-08-05T17:06:56.976Z,31.10
2022-08-05T17:09:29.476Z,31.00
2022-08-05T17:11:59.361Z,30.90
2022-08-05T17:14:36.850Z,30.90
2022-08-05T17:17:14.600Z,30.90
2022-08-05T17:19:46.086Z,30.90
2022-08-05T17:22:17.754Z,30.80
2022-08-05T17:24:57.822Z,30.80
2022-08-05T17:27:33.711Z,30.80
2022-08-05T17:30:03.488Z,30.80
2022-08-05T17:32:34.664Z,30.80
2022-08-05T17:35:04.103Z,30.70
2022-08-05T17:37:41.005Z,30.70
2022-08-05T17:40:15.384Z,30.70
2022-08-05T17:42:51.926Z,30.60
2022-08-05T17:45:22.449Z,30.60
2022-08-05T17:47:55.396Z,30.60
2022-08-05T17:50:28.475Z,30.50
2022-08-05T17:53:00.452Z,30.50
2022-08-05T17:55:38.219Z,30.50
2022-08-05T17:58:12.648Z,30.40
2022-08-05T18:00:45.473Z,30.30
2022-08-05T18:03:56.497Z,30.30
2022-08-05T18:06:12.075Z,30.30
2022-08-05T18:08:45.824Z,30.30
2022-08-05T18:11:24.549Z,30.20
2022-08-05T18:14:01.220Z,30.10
2022-08-05T18:16:32.806Z,30.10
2022-08-05T18:19:04.028Z,30.00
2022-08-05T18:22:08.420Z,30.00
2022-08-05T18:24:20.991Z,30.00
2022-08-05T18:26:49.300Z,29.90
2022-08-05T18:29:17.663Z,29.90
2022-08-05T18:32:06.571Z,29.90
2022-08-05T18:34:42.799Z,29.80
2022-08-05T18:37:12.172Z,29.80
2022-08-05T18:40:31.794Z,29.80
2022-08-05T18:42:29.652Z,29.70
2022-08-05T18:44:57.939Z,29.70
2022-08-05T18:47:28.435Z,29.60
2022-08-05T18:50:17.767Z,29.60
2022-08-05T18:52:51.465Z,29.60
2022-08-05T18:55:22.256Z,29.50
2022-08-05T18:57:54.064Z,29.50
2022-08-05T19:00:31.199Z,29.50
2022-08-05T19:03:03.681Z,29.40
2022-08-05T19:06:12.349Z,29.40
2022-08-05T19:08:30.252Z,29.30
2022-08-05T19:11:04.730Z,29.30
2022-08-05T19:13:35.900Z,29.30
2022-08-05T19:16:25.481Z,29.20
2022-08-05T19:18:56.775Z,29.20
2022-08-05T19:21:34.398Z,29.20
2022-08-05T19:24:08.955Z,29.10
2022-08-05T19:26:54.460Z,29.10
2022-08-05T19:29:24.113Z,29.10
2022-08-05T19:31:56.114Z,29.10
2022-08-05T19:34:26.833Z,29.00
2022-08-05T19:36:56.488Z,29.00
2022-08-05T19:39:25.017Z,29.00
2022-08-05T19:42:05.927Z,29.00
2022-08-05T19:44:44.478Z,29.00
2022-08-05T19:47:16.256Z,29.00
2022-08-05T19:49:46.019Z,28.90
2022-08-05T19:52:31.004Z,28.90
2022-08-05T19:55:07.284Z,28.90
2022-08-05T19:58:04.147Z,28.90
2022-08-05T20:00:38.743Z,28.90
2022-08-05T20:03:08.944Z,28.90
2022-08-05T20:05:42.939Z,28.90
2022-08-05T20:08:13.297Z,28.90
2022-08-05T20:10:43.256Z,28.80
2022-08-05T20:13:12.202Z,28.80
2022-08-05T20:15:51.744Z,28.80
2022-08-05T20:18:35.155Z,28.80
2022-08-05T20:21:06.750Z,28.80
2022-08-05T20:23:40.305Z,28.80
2022-08-05T20:26:20.441Z,28.80
2022-08-05T20:28:50.901Z,28.70
2022-08-05T20:31:21.653Z,28.70
2022-08-05T20:33:51.700Z,28.70
2022-08-05T20:36:24.099Z,28.70
2022-08-05T20:38:57.911Z,28.60
2022-08-05T20:41:43.144Z,28.60
2022-08-05T20:44:17.171Z,28.60
2022-08-05T20:46:48.328Z,28.50
2022-08-05T20:49:23.918Z,28.50
2022-08-05T20:51:53.479Z,28.50
2022-08-05T20:54:25.352Z,28.50
2022-08-05T20:56:53.912Z,28.50
2022-08-05T20:59:27.174Z,28.50
2022-08-05T21:02:10.918Z,28.40
2022-08-05T21:04:39.223Z,28.40
2022-08-05T21:07:08.911Z,28.40
2022-08-05T21:09:50.337Z,28.40
2022-08-05T21:12:22.272Z,28.40
2022-08-05T21:14:55.288Z,28.30
2022-08-05T21:17:26.260Z,28.30
2022-08-05T21:19:57.379Z,28.40
2022-08-05T21:22:27.189Z,28.30
2022-08-05T21:24:58.033Z,28.30
2022-08-05T21:27:27.430Z,28.30
2022-08-05T21:29:56.685Z,28.20
2022-08-05T21:32:27.008Z,28.20
2022-08-05T21:35:09.057Z,28.20
2022-08-05T21:37:47.307Z,28.20
2022-08-05T21:40:23.635Z,28.10
2022-08-05T21:42:53.830Z,28.10
2022-08-05T21:45:25.071Z,28.10
2022-08-05T21:48:11.030Z,28.10
2022-08-05T21:50:41.952Z,28.00
2022-08-05T21:53:21.583Z,28.00
2022-08-05T21:56:05.781Z,27.90
2022-08-05T21:58:42.229Z,27.90
2022-08-05T22:01:11.201Z,27.90
2022-08-05T22:03:53.617Z,27.90
2022-08-05T22:06:37.067Z,27.90
2022-08-05T22:09:13.547Z,27.90
2022-08-05T22:11:46.793Z,27.80
2022-08-05T22:14:32.981Z,27.80
2022-08-05T22:17:06.936Z,27.80
2022-08-05T22:20:00.250Z,27.70
2022-08-05T22:22:28.271Z,27.70
2022-08-05T22:25:21.646Z,27.70
2022-08-05T22:28:10.825Z,27.60
2022-08-05T22:30:44.084Z,27.60
2022-08-05T22:33:56.523Z,27.60
2022-08-05T22:36:15.030Z,27.60
2022-08-05T22:38:48.238Z,27.60
2022-08-05T22:42:04.446Z,27.60
2022-08-05T22:44:08.677Z,27.60
2022-08-05T22:46:40.036Z,27.60
2022-08-05T22:49:12.173Z,27.60
2022-08-05T22:52:05.988Z,27.50
2022-08-05T22:54:36.594Z,27.60
2022-08-05T22:57:05.940Z,27.50
2022-08-05T22:59:45.803Z,27.50
2022-08-05T23:02:17.607Z,27.50
2022-08-05T23:04:51.598Z,27.50
2022-08-05T23:07:22.009Z,27.60
2022-08-05T23:09:58.004Z,27.50
2022-08-05T23:12:32.469Z,27.60
2022-08-05T23:15:08.583Z,27.60
2022-08-05T23:18:01.572Z,27.50
2022-08-05T23:20:26.555Z,27.50
2022-08-05T23:22:56.271Z,27.50
2022-08-05T23:25:54.520Z,27.60
2022-08-05T23:28:15.816Z,27.60
2022-08-05T23:30:53.107Z,27.60
2022-08-05T23:34:03.353Z,27.60
2022-08-05T23:36:13.472Z,27.60
2022-08-05T23:38:43.723Z,27.50
2022-08-05T23:41:12.831Z,27.50
2022-08-05T23:44:04.427Z,27.50
2022-08-05T23:46:31.884Z,27.50
2022-08-05T23:49:02.084Z,27.40
2022-08-05T23:52:01.652Z,27.40
2022-08-05T23:54:36.354Z,27.40
2022-08-05T23:57:06.537Z,27.40
